Weather at October Airport

Public forecast

Using degrees Celsius for public forecast. Weather courtesy of forecast.io.

Closest aviation weather report (METAR) to October Airport

Closest report is Cairo International Airport, 35.5 nm (65.8 km) ENE. Retrieved 2021/01/21 23:30 UTC (0 seconds ago):

HECA 212330Z 04010KT CAVOK 12/06 Q1027 NOSIG

Closest aviation forecast (TAF) to October Airport

Forecast is more than 6 hours old.

Closest forecast is Cairo International Airport, 35.5 nm (65.8 km) ENE. Retrieved 2021/01/21 12:21 UTC (11 hours ago):

TAF HECA 211700Z 2112/2218 02012KT 8000 SCT025 TEMPO 2200/2209 VRB04KT 4000 HZ NSC